sensor_id;sensor_type;location;lat;lon;timestamp;P1;durP1;ratioP1;P2;durP2;ratioP2
48873;SDS011;66155;46.204;5.220;2023-04-06T06:43:43;6.70;;;4.68;;
48873;SDS011;66155;46.204;5.220;2023-04-06T06:48:44;5.72;;;4.68;;
48873;SDS011;66155;46.204;5.220;2023-04-06T06:53:45;5.53;;;4.22;;
48873;SDS011;66155;46.204;5.220;2023-04-06T06:58:45;5.57;;;4.47;;
48873;SDS011;66155;46.204;5.220;2023-04-06T07:03:46;6.57;;;4.32;;
48873;SDS011;66155;46.204;5.220;2023-04-06T07:08:46;7.22;;;4.45;;
48873;SDS011;66155;46.204;5.220;2023-04-06T07:13:47;7.97;;;4.18;;
48873;SDS011;66155;46.204;5.220;2023-04-06T07:18:47;4.60;;;3.90;;
48873;SDS011;66155;46.204;5.220;2023-04-06T07:23:48;4.85;;;3.88;;
48873;SDS011;66155;46.204;5.220;2023-04-06T07:28:48;5.20;;;3.88;;
48873;SDS011;66155;46.204;5.220;2023-04-06T07:33:49;5.78;;;3.55;;
48873;SDS011;66155;46.204;5.220;2023-04-06T07:38:50;5.80;;;3.60;;
48873;SDS011;66155;46.204;5.220;2023-04-06T07:43:50;7.25;;;5.28;;
48873;SDS011;66155;46.204;5.220;2023-04-06T07:48:51;6.70;;;4.22;;
48873;SDS011;66155;46.204;5.220;2023-04-06T07:53:51;5.63;;;4.47;;
48873;SDS011;66155;46.204;5.220;2023-04-06T07:58:52;8.07;;;4.18;;
48873;SDS011;66155;46.204;5.220;2023-04-06T08:03:56;6.40;;;5.72;;
48873;SDS011;66155;46.204;5.220;2023-04-06T08:08:57;5.53;;;4.20;;
48873;SDS011;66155;46.204;5.220;2023-04-06T08:13:57;7.30;;;4.80;;
48873;SDS011;66155;46.204;5.220;2023-04-06T08:18:58;6.18;;;4.22;;
48873;SDS011;66155;46.204;5.220;2023-04-06T08:23:58;6.35;;;4.00;;
48873;SDS011;66155;46.204;5.220;2023-04-06T08:28:59;11.43;;;4.43;;
48873;SDS011;66155;46.204;5.220;2023-04-06T08:34:00;5.13;;;3.80;;
48873;SDS011;66155;46.204;5.220;2023-04-06T08:39:01;6.95;;;4.45;;
48873;SDS011;66155;46.204;5.220;2023-04-06T08:44:02;3.92;;;3.53;;
48873;SDS011;66155;46.204;5.220;2023-04-06T08:49:03;6.90;;;4.07;;
48873;SDS011;66155;46.204;5.220;2023-04-06T08:54:06;6.68;;;4.10;;
48873;SDS011;66155;46.204;5.220;2023-04-06T08:59:07;5.82;;;4.53;;
48873;SDS011;66155;46.204;5.220;2023-04-06T09:04:09;4.03;;;3.22;;
48873;SDS011;66155;46.204;5.220;2023-04-06T09:09:12;5.72;;;3.72;;
48873;SDS011;66155;46.204;5.220;2023-04-06T09:14:13;10.38;;;4.15;;
48873;SDS011;66155;46.204;5.220;2023-04-06T09:19:15;5.57;;;3.20;;
48873;SDS011;66155;46.204;5.220;2023-04-06T09:24:15;5.25;;;3.25;;
48873;SDS011;66155;46.204;5.220;2023-04-06T09:29:21;4.50;;;3.38;;
48873;SDS011;66155;46.204;5.220;2023-04-06T09:34:24;4.00;;;3.30;;
48873;SDS011;66155;46.204;5.220;2023-04-06T09:39:25;4.85;;;4.25;;
48873;SDS011;66155;46.204;5.220;2023-04-06T09:44:26;6.40;;;3.33;;
48873;SDS011;66155;46.204;5.220;2023-04-06T09:49:35;8.15;;;4.80;;
48873;SDS011;66155;46.204;5.220;2023-04-06T09:54:36;8.13;;;3.83;;
48873;SDS011;66155;46.204;5.220;2023-04-06T10:05:05;5.88;;;4.45;;
48873;SDS011;66155;46.204;5.220;2023-04-06T10:10:09;5.25;;;3.85;;
48873;SDS011;66155;46.204;5.220;2023-04-06T10:15:11;6.65;;;4.13;;
48873;SDS011;66155;46.204;5.220;2023-04-06T10:20:16;6.00;;;4.55;;
48873;SDS011;66155;46.204;5.220;2023-04-06T10:25:30;6.28;;;3.95;;
48873;SDS011;66155;46.204;5.220;2023-04-06T10:30:40;6.45;;;4.25;;
48873;SDS011;66155;46.204;5.220;2023-04-06T10:35:43;6.30;;;3.70;;
48873;SDS011;66155;46.204;5.220;2023-04-06T10:40:45;5.35;;;4.32;;
48873;SDS011;66155;46.204;5.220;2023-04-06T10:45:55;5.65;;;4.00;;
48873;SDS011;66155;46.204;5.220;2023-04-06T10:50:58;5.78;;;4.20;;
48873;SDS011;66155;46.204;5.220;2023-04-06T10:55:58;7.30;;;4.40;;
48873;SDS011;66155;46.204;5.220;2023-04-06T11:01:00;8.38;;;4.20;;
48873;SDS011;66155;46.204;5.220;2023-04-06T11:06:01;7.43;;;4.43;;
48873;SDS011;66155;46.204;5.220;2023-04-06T11:16:06;4.25;;;3.55;;
48873;SDS011;66155;46.204;5.220;2023-04-06T11:21:12;7.60;;;4.20;;
48873;SDS011;66155;46.204;5.220;2023-04-06T11:26:12;8.20;;;4.47;;
48873;SDS011;66155;46.204;5.220;2023-04-06T11:31:14;6.60;;;4.45;;
48873;SDS011;66155;46.204;5.220;2023-04-06T11:36:14;5.97;;;4.38;;
48873;SDS011;66155;46.204;5.220;2023-04-06T11:41:15;7.25;;;4.03;;
48873;SDS011;66155;46.204;5.220;2023-04-06T11:46:17;8.88;;;4.78;;
48873;SDS011;66155;46.204;5.220;2023-04-06T11:51:23;9.95;;;5.00;;
48873;SDS011;66155;46.204;5.220;2023-04-06T11:56:25;7.95;;;5.00;;
48873;SDS011;66155;46.204;5.220;2023-04-06T12:01:29;7.90;;;4.73;;
48873;SDS011;66155;46.204;5.220;2023-04-06T12:06:30;7.45;;;4.53;;
48873;SDS011;66155;46.204;5.220;2023-04-06T12:11:31;8.38;;;5.50;;
48873;SDS011;66155;46.204;5.220;2023-04-06T12:16:31;7.25;;;4.40;;
48873;SDS011;66155;46.204;5.220;2023-04-06T12:21:32;12.00;;;6.38;;
48873;SDS011;66155;46.204;5.220;2023-04-06T12:26:34;5.63;;;4.10;;
48873;SDS011;66155;46.204;5.220;2023-04-06T12:31:35;6.03;;;5.43;;
48873;SDS011;66155;46.204;5.220;2023-04-06T12:36:36;6.82;;;4.63;;
48873;SDS011;66155;46.204;5.220;2023-04-06T12:41:37;4.82;;;3.80;;
48873;SDS011;66155;46.204;5.220;2023-04-06T12:46:41;4.57;;;3.38;;
48873;SDS011;66155;46.204;5.220;2023-04-06T12:51:43;4.22;;;3.60;;
48873;SDS011;66155;46.204;5.220;2023-04-06T12:56:43;4.60;;;3.22;;
48873;SDS011;66155;46.204;5.220;2023-04-06T13:01:44;6.03;;;3.22;;
48873;SDS011;66155;46.204;5.220;2023-04-06T13:06:45;5.63;;;3.40;;
48873;SDS011;66155;46.204;5.220;2023-04-06T13:11:46;6.90;;;3.80;;
48873;SDS011;66155;46.204;5.220;2023-04-06T13:16:46;5.03;;;3.22;;
48873;SDS011;66155;46.204;5.220;2023-04-06T13:21:47;4.68;;;3.67;;
48873;SDS011;66155;46.204;5.220;2023-04-06T13:26:47;5.35;;;3.42;;
48873;SDS011;66155;46.204;5.220;2023-04-06T13:31:48;5.45;;;3.72;;
48873;SDS011;66155;46.204;5.220;2023-04-06T13:36:48;4.60;;;3.47;;
48873;SDS011;66155;46.204;5.220;2023-04-06T13:41:48;4.80;;;3.55;;
48873;SDS011;66155;46.204;5.220;2023-04-06T13:46:49;6.20;;;4.38;;
48873;SDS011;66155;46.204;5.220;2023-04-06T13:51:49;4.47;;;3.08;;
48873;SDS011;66155;46.204;5.220;2023-04-06T13:56:51;6.95;;;4.63;;
48873;SDS011;66155;46.204;5.220;2023-04-06T14:01:51;5.65;;;3.53;;
48873;SDS011;66155;46.204;5.220;2023-04-06T14:06:52;7.80;;;4.10;;
48873;SDS011;66155;46.204;5.220;2023-04-06T14:11:53;5.88;;;3.65;;
48873;SDS011;66155;46.204;5.220;2023-04-06T14:16:53;8.93;;;4.93;;
48873;SDS011;66155;46.204;5.220;2023-04-06T14:21:54;7.10;;;3.75;;
48873;SDS011;66155;46.204;5.220;2023-04-06T14:26:56;7.78;;;4.03;;
48873;SDS011;66155;46.204;5.220;2023-04-06T14:31:57;6.97;;;4.43;;
48873;SDS011;66155;46.204;5.220;2023-04-06T14:36:59;6.93;;;4.72;;
48873;SDS011;66155;46.204;5.220;2023-04-06T14:42:00;5.18;;;3.90;;
48873;SDS011;66155;46.204;5.220;2023-04-06T14:47:00;6.20;;;4.95;;
48873;SDS011;66155;46.204;5.220;2023-04-06T14:52:01;4.88;;;3.08;;
48873;SDS011;66155;46.204;5.220;2023-04-06T14:57:02;3.53;;;2.70;;
48873;SDS011;66155;46.204;5.220;2023-04-06T15:02:03;5.93;;;3.70;;
48873;SDS011;66155;46.204;5.220;2023-04-06T15:07:03;6.30;;;3.42;;
48873;SDS011;66155;46.204;5.220;2023-04-06T15:12:04;5.35;;;3.25;;
48873;SDS011;66155;46.204;5.220;2023-04-06T15:17:05;3.58;;;2.83;;
48873;SDS011;66155;46.204;5.220;2023-04-06T15:22:05;3.90;;;2.70;;
48873;SDS011;66155;46.204;5.220;2023-04-06T15:27:06;3.90;;;2.60;;
48873;SDS011;66155;46.204;5.220;2023-04-06T15:32:06;4.30;;;2.88;;
48873;SDS011;66155;46.204;5.220;2023-04-06T15:37:07;4.50;;;3.50;;
48873;SDS011;66155;46.204;5.220;2023-04-06T15:42:08;5.05;;;2.83;;
48873;SDS011;66155;46.204;5.220;2023-04-06T15:47:09;5.45;;;3.17;;
48873;SDS011;66155;46.204;5.220;2023-04-06T15:52:09;3.50;;;3.20;;
48873;SDS011;66155;46.204;5.220;2023-04-06T15:57:10;3.90;;;2.90;;
48873;SDS011;66155;46.204;5.220;2023-04-06T16:02:10;5.50;;;2.90;;
48873;SDS011;66155;46.204;5.220;2023-04-06T16:07:10;4.30;;;3.67;;
48873;SDS011;66155;46.204;5.220;2023-04-06T16:12:11;3.38;;;3.08;;
48873;SDS011;66155;46.204;5.220;2023-04-06T16:17:12;3.22;;;3.00;;
48873;SDS011;66155;46.204;5.220;2023-04-06T16:22:12;4.93;;;2.90;;
48873;SDS011;66155;46.204;5.220;2023-04-06T16:27:13;3.20;;;2.90;;
48873;SDS011;66155;46.204;5.220;2023-04-06T16:32:13;4.15;;;3.03;;
48873;SDS011;66155;46.204;5.220;2023-04-06T16:37:14;3.50;;;3.20;;
48873;SDS011;66155;46.204;5.220;2023-04-06T16:42:15;3.78;;;3.15;;
48873;SDS011;66155;46.204;5.220;2023-04-06T16:47:19;6.10;;;4.53;;
48873;SDS011;66155;46.204;5.220;2023-04-06T16:52:19;3.90;;;3.10;;
48873;SDS011;66155;46.204;5.220;2023-04-06T16:57:20;4.30;;;2.85;;
48873;SDS011;66155;46.204;5.220;2023-04-06T17:02:23;3.78;;;3.05;;
48873;SDS011;66155;46.204;5.220;2023-04-06T17:07:24;5.82;;;3.22;;
48873;SDS011;66155;46.204;5.220;2023-04-06T17:12:30;3.55;;;2.67;;
48873;SDS011;66155;46.204;5.220;2023-04-06T17:17:31;3.55;;;3.20;;
48873;SDS011;66155;46.204;5.220;2023-04-06T17:22:31;3.25;;;2.78;;
48873;SDS011;66155;46.204;5.220;2023-04-06T17:27:33;6.95;;;3.42;;
48873;SDS011;66155;46.204;5.220;2023-04-06T17:32:33;3.08;;;2.80;;
48873;SDS011;66155;46.204;5.220;2023-04-06T17:37:34;3.05;;;2.70;;
48873;SDS011;66155;46.204;5.220;2023-04-06T17:42:35;2.90;;;2.58;;
48873;SDS011;66155;46.204;5.220;2023-04-06T17:47:35;3.50;;;2.85;;
48873;SDS011;66155;46.204;5.220;2023-04-06T17:52:36;3.67;;;3.35;;
48873;SDS011;66155;46.204;5.220;2023-04-06T17:57:36;4.43;;;3.00;;
48873;SDS011;66155;46.204;5.220;2023-04-06T18:02:37;3.20;;;2.60;;
48873;SDS011;66155;46.204;5.220;2023-04-06T18:07:37;3.13;;;2.47;;
48873;SDS011;66155;46.204;5.220;2023-04-06T18:12:38;3.80;;;2.97;;
48873;SDS011;66155;46.204;5.220;2023-04-06T18:17:38;3.47;;;2.95;;
48873;SDS011;66155;46.204;5.220;2023-04-06T18:22:38;3.70;;;2.42;;
48873;SDS011;66155;46.204;5.220;2023-04-06T18:27:39;3.72;;;2.70;;
48873;SDS011;66155;46.204;5.220;2023-04-06T18:32:40;5.95;;;3.20;;
48873;SDS011;66155;46.204;5.220;2023-04-06T18:37:40;7.20;;;3.20;;
48873;SDS011;66155;46.204;5.220;2023-04-06T18:42:41;6.63;;;3.33;;
48873;SDS011;66155;46.204;5.220;2023-04-06T18:47:41;3.73;;;3.20;;
48873;SDS011;66155;46.204;5.220;2023-04-06T18:52:41;4.68;;;2.80;;
48873;SDS011;66155;46.204;5.220;2023-04-06T18:57:42;3.25;;;2.92;;
48873;SDS011;66155;46.204;5.220;2023-04-06T19:02:43;3.38;;;2.78;;
48873;SDS011;66155;46.204;5.220;2023-04-06T19:07:43;3.40;;;3.10;;
48873;SDS011;66155;46.204;5.220;2023-04-06T19:12:51;3.80;;;3.38;;
48873;SDS011;66155;46.204;5.220;2023-04-06T19:17:51;4.70;;;3.00;;
48873;SDS011;66155;46.204;5.220;2023-04-06T19:22:51;3.55;;;3.00;;
48873;SDS011;66155;46.204;5.220;2023-04-06T19:27:52;4.50;;;3.30;;
48873;SDS011;66155;46.204;5.220;2023-04-06T19:32:52;6.53;;;3.60;;
48873;SDS011;66155;46.204;5.220;2023-04-06T19:37:53;4.70;;;3.55;;
48873;SDS011;66155;46.204;5.220;2023-04-06T19:42:54;3.97;;;2.80;;
48873;SDS011;66155;46.204;5.220;2023-04-06T19:47:54;13.02;;;6.57;;
48873;SDS011;66155;46.204;5.220;2023-04-06T19:52:55;7.32;;;4.43;;
48873;SDS011;66155;46.204;5.220;2023-04-06T19:57:55;5.15;;;3.90;;
48873;SDS011;66155;46.204;5.220;2023-04-06T20:02:56;5.82;;;4.50;;
48873;SDS011;66155;46.204;5.220;2023-04-06T20:07:57;8.82;;;5.43;;
48873;SDS011;66155;46.204;5.220;2023-04-06T20:12:57;6.55;;;5.40;;
48873;SDS011;66155;46.204;5.220;2023-04-06T20:18:01;5.85;;;4.85;;
48873;SDS011;66155;46.204;5.220;2023-04-06T20:23:01;7.63;;;5.25;;
48873;SDS011;66155;46.204;5.220;2023-04-06T20:28:02;8.82;;;6.53;;
48873;SDS011;66155;46.204;5.220;2023-04-06T20:33:04;12.70;;;9.38;;
48873;SDS011;66155;46.204;5.220;2023-04-06T20:38:04;14.25;;;9.40;;
48873;SDS011;66155;46.204;5.220;2023-04-06T20:43:05;16.15;;;12.90;;
48873;SDS011;66155;46.204;5.220;2023-04-06T20:48:08;16.95;;;12.45;;
48873;SDS011;66155;46.204;5.220;2023-04-06T20:53:11;16.05;;;11.43;;
48873;SDS011;66155;46.204;5.220;2023-04-06T20:58:11;14.73;;;10.45;;
48873;SDS011;66155;46.204;5.220;2023-04-06T21:03:12;10.65;;;8.77;;
48873;SDS011;66155;46.204;5.220;2023-04-06T21:08:12;9.20;;;7.32;;
48873;SDS011;66155;46.204;5.220;2023-04-06T21:13:13;8.50;;;6.72;;
48873;SDS011;66155;46.204;5.220;2023-04-06T21:18:13;7.53;;;5.30;;
48873;SDS011;66155;46.204;5.220;2023-04-06T21:23:13;6.78;;;5.13;;
48873;SDS011;66155;46.204;5.220;2023-04-06T21:28:15;5.10;;;4.28;;
48873;SDS011;66155;46.204;5.220;2023-04-06T21:33:15;7.80;;;4.93;;
48873;SDS011;66155;46.204;5.220;2023-04-06T21:38:16;12.85;;;6.38;;
48873;SDS011;66155;46.204;5.220;2023-04-06T21:43:16;15.75;;;7.22;;
48873;SDS011;66155;46.204;5.220;2023-04-06T21:48:17;14.80;;;6.88;;
48873;SDS011;66155;46.204;5.220;2023-04-06T21:53:17;17.40;;;7.75;;
48873;SDS011;66155;46.204;5.220;2023-04-06T21:58:18;11.70;;;5.53;;
48873;SDS011;66155;46.204;5.220;2023-04-06T22:03:18;10.68;;;5.40;;
48873;SDS011;66155;46.204;5.220;2023-04-06T22:08:19;4.57;;;3.10;;
48873;SDS011;66155;46.204;5.220;2023-04-06T22:13:20;3.92;;;3.13;;
48873;SDS011;66155;46.204;5.220;2023-04-06T22:18:21;5.63;;;3.40;;
48873;SDS011;66155;46.204;5.220;2023-04-06T22:23:21;7.78;;;3.45;;
48873;SDS011;66155;46.204;5.220;2023-04-06T22:28:22;7.53;;;3.40;;
48873;SDS011;66155;46.204;5.220;2023-04-06T22:33:23;10.27;;;3.92;;
48873;SDS011;66155;46.204;5.220;2023-04-06T22:38:24;8.68;;;4.82;;
48873;SDS011;66155;46.204;5.220;2023-04-06T22:43:25;10.00;;;3.63;;
48873;SDS011;66155;46.204;5.220;2023-04-06T22:48:25;4.82;;;3.42;;
48873;SDS011;66155;46.204;5.220;2023-04-06T22:53:25;5.65;;;4.07;;
48873;SDS011;66155;46.204;5.220;2023-04-06T22:58:26;5.18;;;3.65;;
48873;SDS011;66155;46.204;5.220;2023-04-06T23:03:26;5.43;;;3.38;;
48873;SDS011;66155;46.204;5.220;2023-04-06T23:08:27;9.40;;;3.33;;
48873;SDS011;66155;46.204;5.220;2023-04-06T23:13:27;6.05;;;3.22;;
48873;SDS011;66155;46.204;5.220;2023-04-06T23:18:28;5.30;;;3.50;;
48873;SDS011;66155;46.204;5.220;2023-04-06T23:23:28;3.78;;;3.00;;
48873;SDS011;66155;46.204;5.220;2023-04-06T23:28:29;4.90;;;3.08;;
48873;SDS011;66155;46.204;5.220;2023-04-06T23:33:30;3.40;;;2.78;;
48873;SDS011;66155;46.204;5.220;2023-04-06T23:38:30;5.82;;;3.17;;
48873;SDS011;66155;46.204;5.220;2023-04-06T23:43:31;5.80;;;3.53;;
48873;SDS011;66155;46.204;5.220;2023-04-06T23:48:31;5.60;;;3.65;;
48873;SDS011;66155;46.204;5.220;2023-04-06T23:53:32;6.00;;;2.83;;
48873;SDS011;66155;46.204;5.220;2023-04-06T23:58:32;6.78;;;3.78;;
